Time,TemperatureF,DewpointF,PressureIn,WindDirection,WindDirectionDegrees,WindSpeedMPH,WindSpeedGustMPH,Humidity,HourlyPrecipIn,Conditions,Clouds,dailyrainin,SoftwareType,DateUTC
2013-03-01 00:01:00,50.0,30.6,30.24,SSW,202,3.0,4.0,47,0.00,,,-99.99,FreeWX 2.03,2013-03-01 06:01:00,
2013-03-01 00:06:00,50.2,30.2,30.24,SSW,200,1.0,2.7,46,0.00,,,-99.99,FreeWX 2.03,2013-03-01 06:06:00,
2013-03-01 00:11:00,50.2,29.7,30.24,North,-999,0.0,0.0,45,0.00,,,-99.99,FreeWX 2.03,2013-03-01 06:11:00,
2013-03-01 00:16:00,50.4,29.8,30.24,North,-999,0.0,3.6,45,0.00,,,-99.99,FreeWX 2.03,2013-03-01 06:16:00,
2013-03-01 00:21:00,50.4,30.9,30.24,SW,217,2.0,4.0,47,0.00,,,-99.99,FreeWX 2.03,2013-03-01 06:21:00,
2013-03-01 00:26:00,50.4,30.9,30.24,SW,223,3.0,4.0,47,0.00,,,-99.99,FreeWX 2.03,2013-03-01 06:26:00,
2013-03-01 00:31:00,50.4,31.5,30.24,SW,225,3.0,4.0,48,0.00,,,-99.99,FreeWX 2.03,2013-03-01 06:31:00,
2013-03-01 00:36:00,50.5,31.6,30.24,SW,229,3.0,4.5,48,0.00,,,-99.99,FreeWX 2.03,2013-03-01 06:36:00,
2013-03-01 00:41:00,50.5,32.2,30.24,SW,229,3.0,4.5,49,0.00,,,-99.99,FreeWX 2.03,2013-03-01 06:41:00,
2013-03-01 00:46:00,50.5,32.2,30.24,SW,231,3.0,4.5,49,0.00,,,-99.99,FreeWX 2.03,2013-03-01 06:46:00,
2013-03-01 00:51:00,50.4,32.0,30.24,SW,232,3.0,4.9,49,0.00,,,-99.99,FreeWX 2.03,2013-03-01 06:51:00,
2013-03-01 00:56:00,50.4,32.0,30.24,SW,231,3.0,4.9,49,0.00,,,-99.99,FreeWX 2.03,2013-03-01 06:56:00,
2013-03-01 01:01:00,50.4,32.0,30.24,SW,231,3.0,4.5,49,0.00,,,-99.99,FreeWX 2.03,2013-03-01 07:01:00,
2013-03-01 01:06:00,50.5,32.2,30.24,SW,229,3.0,4.0,49,0.00,,,-99.99,FreeWX 2.03,2013-03-01 07:06:00,
2013-03-01 01:11:00,50.7,32.2,30.24,SW,224,3.0,4.5,49,0.00,,,-99.99,FreeWX 2.03,2013-03-01 07:11:00,
2013-03-01 01:16:00,50.7,32.2,30.24,SW,220,3.0,4.0,49,0.00,,,-99.99,FreeWX 2.03,2013-03-01 07:16:00,
2013-03-01 01:21:00,50.7,31.8,30.24,SW,221,2.0,3.6,48,0.00,,,-99.99,FreeWX 2.03,2013-03-01 07:21:00,
2013-03-01 01:26:00,50.7,31.8,30.24,SW,221,2.0,3.6,48,0.00,,,-99.99,FreeWX 2.03,2013-03-01 07:26:00,
2013-03-01 01:31:00,50.7,31.8,30.24,SW,218,1.0,2.7,48,0.00,,,-99.99,FreeWX 2.03,2013-03-01 07:31:00,
2013-03-01 01:36:00,50.7,32.2,30.24,North,-999,0.0,0.0,49,0.00,,,-99.99,FreeWX 2.03,2013-03-01 07:36:00,
2013-03-01 01:41:00,50.5,32.2,30.24,North,-999,0.0,0.0,49,0.00,,,-99.99,FreeWX 2.03,2013-03-01 07:41:00,
2013-03-01 01:46:00,50.5,32.5,30.24,SW,224,1.0,4.5,50,0.00,,,-99.99,FreeWX 2.03,2013-03-01 07:46:00,
2013-03-01 01:51:00,50.4,32.4,30.24,SW,234,3.0,4.0,50,0.00,,,-99.99,FreeWX 2.03,2013-03-01 07:51:00,
2013-03-01 01:56:00,50.4,32.9,30.24,WSW,240,3.0,5.4,51,0.00,,,-99.99,FreeWX 2.03,2013-03-01 07:56:00,
2013-03-01 02:01:00,50.2,32.2,30.24,WSW,243,4.0,5.4,50,0.00,,,-99.99,FreeWX 2.03,2013-03-01 08:01:00,
2013-03-01 02:06:00,50.0,31.6,30.24,WSW,244,4.0,5.8,49,0.00,,,-99.99,FreeWX 2.03,2013-03-01 08:06:00,
2013-03-01 02:11:00,49.8,30.9,30.24,WSW,247,5.0,5.8,48,0.00,,,-99.99,FreeWX 2.03,2013-03-01 08:11:00,
2013-03-01 02:16:00,49.8,30.9,30.24,WSW,247,5.0,5.8,48,0.00,,,-99.99,FreeWX 2.03,2013-03-01 08:16:00,
2013-03-01 02:21:00,49.8,30.9,30.24,WSW,246,4.0,5.8,48,0.00,,,-99.99,FreeWX 2.03,2013-03-01 08:21:00,
2013-03-01 02:26:00,49.8,30.4,30.21,WSW,245,4.0,5.8,47,0.00,,,-99.99,FreeWX 2.03,2013-03-01 08:26:00,
2013-03-01 02:31:00,50.0,28.9,30.21,WSW,246,4.0,5.4,44,0.00,,,-99.99,FreeWX 2.03,2013-03-01 08:31:00,
2013-03-01 02:36:00,50.2,28.0,30.21,WSW,245,4.0,4.9,42,0.00,,,-99.99,FreeWX 2.03,2013-03-01 08:36:00,
2013-03-01 02:41:00,50.2,27.3,30.21,WSW,241,4.0,4.9,41,0.00,,,-99.99,FreeWX 2.03,2013-03-01 08:41:00,
2013-03-01 02:46:00,50.2,27.3,30.21,SW,234,2.0,3.6,41,0.00,,,-99.99,FreeWX 2.03,2013-03-01 08:46:00,
2013-03-01 02:51:00,50.2,26.8,30.21,SW,229,2.0,4.0,40,0.00,,,-99.99,FreeWX 2.03,2013-03-01 08:51:00,
2013-03-01 02:56:00,50.2,26.8,30.21,SW,227,2.0,3.1,40,0.00,,,-99.99,FreeWX 2.03,2013-03-01 08:56:00,
2013-03-01 03:01:00,50.2,26.8,30.21,North,-999,0.0,0.0,40,0.00,,,-99.99,FreeWX 2.03,2013-03-01 09:01:00,
2013-03-01 03:06:00,50.0,26.6,30.21,North,-999,0.0,3.6,40,0.00,,,-99.99,FreeWX 2.03,2013-03-01 09:06:00,
2013-03-01 03:11:00,50.0,27.3,30.21,SW,224,1.0,2.7,41,0.00,,,-99.99,FreeWX 2.03,2013-03-01 09:11:00,
2013-03-01 03:16:00,49.8,26.4,30.21,SW,225,2.0,3.6,40,0.00,,,-99.99,FreeWX 2.03,2013-03-01 09:16:00,
2013-03-01 03:22:00,49.8,27.1,30.21,SW,226,3.0,4.0,41,0.00,,,-99.99,FreeWX 2.03,2013-03-01 09:22:00,
2013-03-01 03:27:00,49.8,27.1,30.21,SW,227,3.0,4.5,41,0.00,,,-99.99,FreeWX 2.03,2013-03-01 09:27:00,
2013-03-01 03:32:00,49.8,27.7,30.21,SW,230,4.0,4.9,42,0.00,,,-99.99,FreeWX 2.03,2013-03-01 09:32:00,
2013-03-01 03:37:00,49.8,28.2,30.21,SW,231,4.0,4.9,43,0.00,,,-99.99,FreeWX 2.03,2013-03-01 09:37:00,
2013-03-01 03:42:00,50.0,27.3,30.21,SW,233,4.0,5.4,41,0.00,,,-99.99,FreeWX 2.03,2013-03-01 09:42:00,
2013-03-01 03:47:00,50.0,27.3,30.21,SW,235,4.0,5.4,41,0.00,,,-99.99,FreeWX 2.03,2013-03-01 09:47:00,
2013-03-01 03:52:00,50.2,28.0,30.21,SW,234,4.0,5.8,42,0.00,,,-99.99,FreeWX 2.03,2013-03-01 09:52:00,
2013-03-01 03:57:00,50.0,30.0,30.21,SW,233,5.0,6.7,46,0.00,,,-99.99,FreeWX 2.03,2013-03-01 09:57:00,
2013-03-01 04:02:00,49.8,30.9,30.21,SW,234,6.0,6.3,48,0.00,,,-99.99,FreeWX 2.03,2013-03-01 10:02:00,
2013-03-01 04:07:00,49.8,32.0,30.21,SW,236,5.0,6.3,50,0.00,,,-99.99,FreeWX 2.03,2013-03-01 10:07:00,
2013-03-01 04:12:00,49.6,32.7,30.21,WSW,237,5.0,6.3,52,0.00,,,-99.99,FreeWX 2.03,2013-03-01 10:12:00,
2013-03-01 04:17:00,49.5,34.0,30.21,WSW,239,5.0,5.8,55,0.00,,,-99.99,FreeWX 2.03,2013-03-01 10:17:00,
2013-03-01 04:22:00,49.5,35.2,30.21,WSW,244,5.0,5.4,58,0.00,,,-99.99,FreeWX 2.03,2013-03-01 10:22:00,
2013-03-01 04:27:00,49.3,35.6,30.21,WSW,247,4.0,4.9,59,0.00,,,-99.99,FreeWX 2.03,2013-03-01 10:27:00,
2013-03-01 04:32:00,49.3,36.3,30.21,WSW,249,4.0,5.4,61,0.00,,,-99.99,FreeWX 2.03,2013-03-01 10:32:00,
2013-03-01 04:37:00,49.1,37.0,30.21,WSW,250,4.0,5.8,63,0.00,,,-99.99,FreeWX 2.03,2013-03-01 10:37:00,
2013-03-01 04:42:00,48.9,37.2,30.21,WSW,254,4.0,4.9,64,0.00,,,-99.99,FreeWX 2.03,2013-03-01 10:42:00,
2013-03-01 04:47:00,48.9,37.8,30.21,West,260,4.0,5.4,65,0.00,,,-99.99,FreeWX 2.03,2013-03-01 10:47:00,
2013-03-01 04:52:00,48.7,37.6,30.21,West,264,4.0,5.4,65,0.00,,,-99.99,FreeWX 2.03,2013-03-01 10:52:00,
2013-03-01 04:57:00,48.7,37.9,30.21,West,264,4.0,4.9,66,0.00,,,-99.99,FreeWX 2.03,2013-03-01 10:57:00,
2013-03-01 05:02:00,48.7,38.7,30.21,West,265,4.0,5.8,68,0.00,,,-99.99,FreeWX 2.03,2013-03-01 11:02:00,
2013-03-01 05:07:00,48.7,39.0,30.21,West,269,5.0,5.8,69,0.00,,,-99.99,FreeWX 2.03,2013-03-01 11:07:00,
2013-03-01 05:12:00,48.7,39.7,30.21,West,273,5.0,6.3,71,0.00,,,-99.99,FreeWX 2.03,2013-03-01 11:12:00,
2013-03-01 05:17:00,48.6,40.3,30.21,West,276,5.0,6.3,73,0.00,,,-99.99,FreeWX 2.03,2013-03-01 11:17:00,
2013-03-01 05:22:00,48.4,40.1,30.21,West,276,6.0,6.7,73,0.00,,,-99.99,FreeWX 2.03,2013-03-01 11:22:00,
2013-03-01 05:27:00,48.2,39.9,30.21,West,277,6.0,7.4,73,0.00,,,-99.99,FreeWX 2.03,2013-03-01 11:27:00,
2013-03-01 05:32:00,48.2,39.9,30.21,West,280,6.0,6.9,73,0.00,,,-99.99,FreeWX 2.03,2013-03-01 11:32:00,
2013-03-01 05:37:00,48.2,39.2,30.21,West,281,6.0,7.4,71,0.00,,,-99.99,FreeWX 2.03,2013-03-01 11:37:00,
2013-03-01 05:42:00,48.2,38.5,30.21,West,280,6.0,6.9,69,0.00,,,-99.99,FreeWX 2.03,2013-03-01 11:42:00,
2013-03-01 05:47:00,48.0,37.6,30.21,West,281,6.0,7.4,67,0.00,,,-99.99,FreeWX 2.03,2013-03-01 11:47:00,
2013-03-01 05:52:00,47.8,36.3,30.21,WNW,285,6.0,6.9,64,0.00,,,-99.99,FreeWX 2.03,2013-03-01 11:52:00,
2013-03-01 05:57:00,47.7,35.2,30.21,WNW,284,6.0,7.8,62,0.00,,,-99.99,FreeWX 2.03,2013-03-01 11:57:00,
2013-03-01 06:02:00,47.5,34.3,30.21,West,281,6.0,6.7,60,0.00,,,-99.99,FreeWX 2.03,2013-03-01 12:02:00,
2013-03-01 06:07:00,47.3,33.6,30.21,WNW,282,5.0,6.9,59,0.00,,,-99.99,FreeWX 2.03,2013-03-01 12:07:00,
2013-03-01 06:12:00,46.9,32.0,30.24,WNW,283,6.0,7.8,56,0.00,,,-99.99,FreeWX 2.03,2013-03-01 12:12:00,
2013-03-01 06:17:00,46.9,31.1,30.24,WNW,282,6.0,8.3,54,0.00,,,-99.99,FreeWX 2.03,2013-03-01 12:17:00,
2013-03-01 06:22:00,46.8,30.0,30.24,WNW,284,6.0,7.4,52,0.00,,,-99.99,FreeWX 2.03,2013-03-01 12:22:00,
2013-03-01 06:27:00,46.4,29.3,30.24,WNW,286,6.0,7.8,51,0.00,,,-99.99,FreeWX 2.03,2013-03-01 12:27:00,
2013-03-01 06:32:00,46.2,29.1,30.24,WNW,286,7.0,9.2,51,0.00,,,-99.99,FreeWX 2.03,2013-03-01 12:32:00,
2013-03-01 06:37:00,45.9,28.8,30.24,WNW,286,7.0,9.6,51,0.00,,,-99.99,FreeWX 2.03,2013-03-01 12:37:00,
2013-03-01 06:42:00,45.7,29.1,30.24,WNW,287,7.0,7.8,52,0.00,,,-99.99,FreeWX 2.03,2013-03-01 12:42:00,
2013-03-01 06:47:00,45.5,28.9,30.24,WNW,288,6.0,7.4,52,0.00,,,-99.99,FreeWX 2.03,2013-03-01 12:47:00,
2013-03-01 06:52:00,45.5,29.3,30.24,WNW,287,5.0,6.7,53,0.00,,,-99.99,FreeWX 2.03,2013-03-01 12:52:00,
2013-03-01 06:57:00,45.3,29.7,30.24,WNW,286,5.0,6.7,54,0.00,,,-99.99,FreeWX 2.03,2013-03-01 12:57:00,
2013-03-01 07:02:00,45.1,29.5,30.24,WNW,285,5.0,6.7,54,0.00,,,-99.99,FreeWX 2.03,2013-03-01 13:02:00,
2013-03-01 07:07:00,45.0,29.3,30.24,West,280,5.0,5.8,54,0.00,,,-99.99,FreeWX 2.03,2013-03-01 13:07:00,
2013-03-01 07:12:00,44.8,29.7,30.24,West,276,4.0,5.8,55,0.00,,,-99.99,FreeWX 2.03,2013-03-01 13:12:00,
2013-03-01 07:17:00,44.8,30.6,30.24,West,277,2.0,3.6,57,0.00,,,-99.99,FreeWX 2.03,2013-03-01 13:17:00,
2013-03-01 07:22:00,44.6,30.7,30.24,West,280,2.0,4.9,58,0.00,,,-99.99,FreeWX 2.03,2013-03-01 13:22:00,
2013-03-01 07:27:00,44.6,30.7,30.24,WNW,283,4.0,5.8,58,0.00,,,-99.99,FreeWX 2.03,2013-03-01 13:27:00,
2013-03-01 07:32:00,44.6,30.4,30.24,West,281,4.0,5.8,57,0.00,,,-99.99,FreeWX 2.03,2013-03-01 13:32:00,
2013-03-01 07:37:00,44.8,30.9,30.24,West,278,4.0,6.7,58,0.00,,,-99.99,FreeWX 2.03,2013-03-01 13:37:00,
2013-03-01 07:42:00,45.0,31.1,30.24,West,280,5.0,6.7,58,0.00,,,-99.99,FreeWX 2.03,2013-03-01 13:42:00,
2013-03-01 07:47:00,45.1,30.7,30.24,WNW,282,5.0,7.8,57,0.00,,,-99.99,FreeWX 2.03,2013-03-01 13:47:00,
2013-03-01 07:52:00,45.5,29.8,30.24,WNW,285,6.0,7.8,54,0.00,,,-99.99,FreeWX 2.03,2013-03-01 13:52:00,
2013-03-01 07:57:00,46.0,29.5,30.24,WNW,284,6.0,8.7,52,0.00,,,-99.99,FreeWX 2.03,2013-03-01 13:57:00,
2013-03-01 08:02:00,46.4,28.8,30.24,West,281,6.0,8.3,50,0.00,,,-99.99,FreeWX 2.03,2013-03-01 14:02:00,
2013-03-01 08:07:00,46.8,29.1,30.24,West,279,6.0,8.3,50,0.00,,,-99.99,FreeWX 2.03,2013-03-01 14:07:00,
2013-03-01 08:12:00,46.9,28.2,30.27,West,277,6.0,8.7,48,0.00,,,-99.99,FreeWX 2.03,2013-03-01 14:12:00,
2013-03-01 08:17:00,47.3,28.6,30.27,West,275,6.0,7.4,48,0.00,,,-99.99,FreeWX 2.03,2013-03-01 14:17:00,
2013-03-01 08:22:00,47.8,29.1,30.27,West,275,6.0,6.7,48,0.00,,,-99.99,FreeWX 2.03,2013-03-01 14:22:00,
2013-03-01 08:27:00,48.2,29.5,30.27,West,273,5.0,7.8,48,0.00,,,-99.99,FreeWX 2.03,2013-03-01 14:27:00,
2013-03-01 08:32:00,48.6,27.7,30.27,West,272,6.0,7.8,44,0.00,,,-99.99,FreeWX 2.03,2013-03-01 14:32:00,
2013-03-01 08:37:00,48.9,29.1,30.27,West,271,5.0,5.8,46,0.00,,,-99.99,FreeWX 2.03,2013-03-01 14:37:00,
2013-03-01 08:42:00,49.3,29.8,30.27,West,264,5.0,7.4,47,0.00,,,-99.99,FreeWX 2.03,2013-03-01 14:42:00,
2013-03-01 08:47:00,49.6,27.5,30.27,West,260,6.0,8.3,42,0.00,,,-99.99,FreeWX 2.03,2013-03-01 14:47:00,
2013-03-01 08:52:00,50.0,26.6,30.27,West,264,6.0,8.3,40,0.00,,,-99.99,FreeWX 2.03,2013-03-01 14:52:00,
2013-03-01 08:57:00,50.5,27.1,30.27,West,261,6.0,8.3,40,0.00,,,-99.99,FreeWX 2.03,2013-03-01 14:57:00,
2013-03-01 09:02:00,50.9,27.5,30.27,WSW,254,6.0,7.8,40,0.00,,,-99.99,FreeWX 2.03,2013-03-01 15:02:00,
2013-03-01 09:07:00,51.3,27.9,30.27,WSW,250,6.0,7.8,40,0.00,,,-99.99,FreeWX 2.03,2013-03-01 15:07:00,
2013-03-01 09:12:00,51.6,26.8,30.27,WSW,246,6.0,7.8,38,0.00,,,-99.99,FreeWX 2.03,2013-03-01 15:12:00,
2013-03-01 09:17:00,52.0,27.1,30.27,WSW,242,5.0,6.7,38,0.00,,,-99.99,FreeWX 2.03,2013-03-01 15:17:00,
2013-03-01 09:22:00,52.2,27.3,30.27,SW,235,4.0,6.7,38,0.00,,,-99.99,FreeWX 2.03,2013-03-01 15:22:00,
2013-03-01 09:27:00,52.5,27.0,30.27,SW,236,5.0,6.9,37,0.00,,,-99.99,FreeWX 2.03,2013-03-01 15:27:00,
2013-03-01 09:32:00,53.1,27.5,30.27,WSW,237,5.0,6.3,37,0.00,,,-99.99,FreeWX 2.03,2013-03-01 15:32:00,
2013-03-01 09:37:00,53.4,27.9,30.27,SW,236,5.0,6.7,37,0.00,,,-99.99,FreeWX 2.03,2013-03-01 15:37:00,
2013-03-01 09:42:00,53.8,27.5,30.27,SW,233,5.0,6.9,36,0.00,,,-99.99,FreeWX 2.03,2013-03-01 15:42:00,
2013-03-01 09:47:00,54.0,27.7,30.27,SW,228,5.0,7.4,36,0.00,,,-99.99,FreeWX 2.03,2013-03-01 15:47:00,
2013-03-01 09:52:00,54.5,28.0,30.27,SW,223,6.0,7.4,36,0.00,,,-99.99,FreeWX 2.03,2013-03-01 15:52:00,
2013-03-01 09:57:00,55.0,28.6,30.27,SW,218,6.0,7.4,36,0.00,,,-99.99,FreeWX 2.03,2013-03-01 15:57:00,
2013-03-01 10:02:00,55.8,27.1,30.27,SSW,213,6.0,7.4,33,0.00,,,-99.99,FreeWX 2.03,2013-03-01 16:02:00,
2013-03-01 10:07:00,56.3,27.5,30.27,SSW,210,6.0,8.3,33,0.00,,,-99.99,FreeWX 2.03,2013-03-01 16:07:00,
2013-03-01 10:12:00,56.8,28.0,30.27,SSW,207,6.0,7.8,33,0.00,,,-99.99,FreeWX 2.03,2013-03-01 16:12:00,
2013-03-01 10:17:00,57.2,26.1,30.27,SSW,202,6.0,7.4,30,0.00,,,-99.99,FreeWX 2.03,2013-03-01 16:17:00,
2013-03-01 10:22:00,57.6,28.8,30.27,SSW,195,6.0,8.3,33,0.00,,,-99.99,FreeWX 2.03,2013-03-01 16:22:00,
2013-03-01 10:27:00,57.6,26.4,30.27,South,189,6.0,7.8,30,0.00,,,-99.99,FreeWX 2.03,2013-03-01 16:27:00,
2013-03-01 10:32:00,57.7,28.8,30.27,South,185,6.0,8.7,33,0.00,,,-99.99,FreeWX 2.03,2013-03-01 16:32:00,
2013-03-01 10:37:00,57.9,28.9,30.27,South,181,6.0,6.9,33,0.00,,,-99.99,FreeWX 2.03,2013-03-01 16:37:00,
2013-03-01 10:42:00,57.9,26.6,30.27,South,179,5.0,5.4,30,0.00,,,-99.99,FreeWX 2.03,2013-03-01 16:42:00,
2013-03-01 10:47:00,57.9,26.6,30.27,South,179,3.0,4.9,30,0.00,,,-99.99,FreeWX 2.03,2013-03-01 16:47:00,
2013-03-01 10:52:00,58.1,26.8,30.27,South,182,3.0,5.8,30,0.00,,,-99.99,FreeWX 2.03,2013-03-01 16:52:00,
2013-03-01 10:57:00,58.3,27.0,30.27,South,178,3.0,5.4,30,0.00,,,-99.99,FreeWX 2.03,2013-03-01 16:57:00,
2013-03-01 11:02:00,58.5,27.1,30.27,SSE,164,2.0,6.3,30,0.00,,,-99.99,FreeWX 2.03,2013-03-01 17:02:00,
2013-03-01 11:07:00,58.8,27.5,30.27,SSE,156,3.0,4.9,30,0.00,,,-99.99,FreeWX 2.03,2013-03-01 17:07:00,
2013-03-01 11:12:00,59.0,27.7,30.27,SSE,157,3.0,3.6,30,0.00,,,-99.99,FreeWX 2.03,2013-03-01 17:12:00,
2013-03-01 11:17:00,59.0,27.7,30.27,SSE,156,2.0,6.7,30,0.00,,,-99.99,FreeWX 2.03,2013-03-01 17:17:00,
2013-03-01 11:22:00,58.8,27.5,30.27,SSE,154,3.0,5.4,30,0.00,,,-99.99,FreeWX 2.03,2013-03-01 17:22:00,
2013-03-01 11:27:00,58.6,27.3,30.24,SSE,148,4.0,4.9,30,0.00,,,-99.99,FreeWX 2.03,2013-03-01 17:27:00,
2013-03-01 11:32:00,58.6,27.3,30.24,SE,144,3.0,6.7,30,0.00,,,-99.99,FreeWX 2.03,2013-03-01 17:32:00,
2013-03-01 11:37:00,58.6,27.3,30.24,SE,145,4.0,6.7,30,0.00,,,-99.99,FreeWX 2.03,2013-03-01 17:37:00,
2013-03-01 11:42:00,58.6,27.3,30.24,SE,135,3.0,5.4,30,0.00,,,-99.99,FreeWX 2.03,2013-03-01 17:42:00,
2013-03-01 11:47:00,59.0,27.7,30.24,ESE,117,2.0,5.4,30,0.00,,,-99.99,FreeWX 2.03,2013-03-01 17:47:00,
2013-03-01 11:52:00,59.2,27.7,30.24,ESE,112,2.0,5.4,30,0.00,,,-99.99,FreeWX 2.03,2013-03-01 17:52:00,
2013-03-01 11:57:00,59.5,28.0,30.24,ESE,114,3.0,6.9,30,0.00,,,-99.99,FreeWX 2.03,2013-03-01 17:57:00,
2013-03-01 12:02:00,60.3,28.8,30.24,ESE,110,5.0,9.2,30,0.00,,,-99.99,FreeWX 2.03,2013-03-01 18:02:00,
2013-03-01 12:07:00,61.0,28.6,30.24,ESE,106,5.0,8.3,29,0.00,,,-99.99,FreeWX 2.03,2013-03-01 18:07:00,
2013-03-01 12:12:00,61.3,28.8,30.24,ESE,103,5.0,9.2,29,0.00,,,-99.99,FreeWX 2.03,2013-03-01 18:12:00,
2013-03-01 12:17:00,61.7,29.1,30.24,ESE,103,5.0,9.2,29,0.00,,,-99.99,FreeWX 2.03,2013-03-01 18:17:00,
2013-03-01 12:22:00,62.1,29.5,30.24,East,101,5.0,9.2,29,0.00,,,-99.99,FreeWX 2.03,2013-03-01 18:22:00,
2013-03-01 12:27:00,62.2,29.7,30.24,East,100,6.0,8.7,29,0.00,,,-99.99,FreeWX 2.03,2013-03-01 18:27:00,
2013-03-01 12:32:00,62.4,28.0,30.24,East,99,6.0,10.5,27,0.00,,,-99.99,FreeWX 2.03,2013-03-01 18:32:00,
2013-03-01 12:37:00,62.6,28.2,30.24,East,99,6.0,11.0,27,0.00,,,-99.99,FreeWX 2.03,2013-03-01 18:37:00,
2013-03-01 12:43:00,62.6,28.2,30.21,East,99,7.0,13.0,27,0.00,,,-99.99,FreeWX 2.03,2013-03-01 18:43:00,
2013-03-01 12:48:00,62.8,28.2,30.21,East,96,8.0,12.1,27,0.00,,,-99.99,FreeWX 2.03,2013-03-01 18:48:00,
2013-03-01 12:53:00,62.6,28.2,30.21,East,96,8.0,11.0,27,0.00,,,-99.99,FreeWX 2.03,2013-03-01 18:53:00,
2013-03-01 12:58:00,62.6,28.2,30.21,East,97,8.0,12.1,27,0.00,,,-99.99,FreeWX 2.03,2013-03-01 18:58:00,
2013-03-01 13:03:00,62.4,28.0,30.21,East,96,8.0,11.2,27,0.00,,,-99.99,FreeWX 2.03,2013-03-01 19:03:00,
2013-03-01 13:08:00,62.2,27.9,30.21,East,95,8.0,12.1,27,0.00,,,-99.99,FreeWX 2.03,2013-03-01 19:08:00,
2013-03-01 13:13:00,62.4,28.0,30.21,East,95,7.0,9.2,27,0.00,,,-99.99,FreeWX 2.03,2013-03-01 19:13:00,
2013-03-01 13:18:00,62.4,28.0,30.21,East,96,7.0,11.2,27,0.00,,,-99.99,FreeWX 2.03,2013-03-01 19:18:00,
2013-03-01 13:23:00,62.4,28.0,30.21,East,96,7.0,11.6,27,0.00,,,-99.99,FreeWX 2.03,2013-03-01 19:23:00,
2013-03-01 13:28:00,62.4,28.0,30.18,East,95,7.0,11.6,27,0.00,,,-99.99,FreeWX 2.03,2013-03-01 19:28:00,
2013-03-01 13:33:00,62.6,28.2,30.18,East,93,7.0,13.9,27,0.00,,,-99.99,FreeWX 2.03,2013-03-01 19:33:00,
2013-03-01 13:38:00,62.6,28.2,30.18,East,92,8.0,13.0,27,0.00,,,-99.99,FreeWX 2.03,2013-03-01 19:38:00,
2013-03-01 13:43:00,62.8,28.2,30.18,East,92,7.0,11.6,27,0.00,,,-99.99,FreeWX 2.03,2013-03-01 19:43:00,
2013-03-01 13:48:00,62.8,28.2,30.18,East,92,7.0,12.1,27,0.00,,,-99.99,FreeWX 2.03,2013-03-01 19:48:00,
2013-03-01 13:53:00,62.6,28.2,30.18,East,92,7.0,11.6,27,0.00,,,-99.99,FreeWX 2.03,2013-03-01 19:53:00,
2013-03-01 13:58:00,62.6,28.2,30.18,East,93,7.0,12.1,27,0.00,,,-99.99,FreeWX 2.03,2013-03-01 19:58:00,
2013-03-01 14:03:00,62.8,28.2,30.18,East,94,8.0,13.4,27,0.00,,,-99.99,FreeWX 2.03,2013-03-01 20:03:00,
2013-03-01 14:08:00,62.6,28.2,30.18,East,93,8.0,12.5,27,0.00,,,-99.99,FreeWX 2.03,2013-03-01 20:08:00,
2013-03-01 14:13:00,62.8,28.2,30.18,East,91,7.0,11.6,27,0.00,,,-99.99,FreeWX 2.03,2013-03-01 20:13:00,
2013-03-01 14:18:00,62.8,28.2,30.18,East,91,8.0,13.0,27,0.00,,,-99.99,FreeWX 2.03,2013-03-01 20:18:00,
2013-03-01 14:23:00,62.6,28.2,30.18,East,91,9.0,13.9,27,0.00,,,-99.99,FreeWX 2.03,2013-03-01 20:23:00,
2013-03-01 14:28:00,62.4,28.0,30.18,East,90,9.0,13.9,27,0.00,,,-99.99,FreeWX 2.03,2013-03-01 20:28:00,
2013-03-01 14:33:00,62.4,28.0,30.18,East,90,9.0,13.4,27,0.00,,,-99.99,FreeWX 2.03,2013-03-01 20:33:00,
2013-03-01 14:38:00,62.2,27.9,30.18,East,90,9.0,13.9,27,0.00,,,-99.99,FreeWX 2.03,2013-03-01 20:38:00,
2013-03-01 14:43:00,62.1,27.7,30.15,East,89,9.0,13.9,27,0.00,,,-99.99,FreeWX 2.03,2013-03-01 20:43:00,
2013-03-01 14:48:00,62.2,27.9,30.15,East,89,8.0,13.4,27,0.00,,,-99.99,FreeWX 2.03,2013-03-01 20:48:00,
2013-03-01 14:53:00,62.4,28.0,30.15,East,89,8.0,12.5,27,0.00,,,-99.99,FreeWX 2.03,2013-03-01 20:53:00,
2013-03-01 14:58:00,62.4,28.0,30.15,East,90,9.0,15.9,27,0.00,,,-99.99,FreeWX 2.03,2013-03-01 20:58:00,
2013-03-01 15:03:00,62.2,27.9,30.15,East,91,9.0,13.9,27,0.00,,,-99.99,FreeWX 2.03,2013-03-01 21:03:00,
2013-03-01 15:08:00,62.1,27.7,30.15,East,88,9.0,13.4,27,0.00,,,-99.99,FreeWX 2.03,2013-03-01 21:08:00,
2013-03-01 15:13:00,61.9,27.5,30.15,East,87,9.0,13.9,27,0.00,,,-99.99,FreeWX 2.03,2013-03-01 21:13:00,
2013-03-01 15:18:00,61.9,27.5,30.15,East,90,9.0,15.2,27,0.00,,,-99.99,FreeWX 2.03,2013-03-01 21:18:00,
2013-03-01 15:23:00,61.7,27.3,30.15,East,91,10.0,14.8,27,0.00,,,-99.99,FreeWX 2.03,2013-03-01 21:23:00,
2013-03-01 15:28:00,61.7,29.1,30.15,East,90,10.0,15.2,29,0.00,,,-99.99,FreeWX 2.03,2013-03-01 21:28:00,
2013-03-01 15:33:00,61.5,28.9,30.15,East,90,9.0,15.4,29,0.00,,,-99.99,FreeWX 2.03,2013-03-01 21:33:00,
2013-03-01 15:38:00,61.5,28.9,30.15,East,92,9.0,15.2,29,0.00,,,-99.99,FreeWX 2.03,2013-03-01 21:38:00,
2013-03-01 15:43:00,61.3,28.8,30.12,East,91,10.0,15.2,29,0.00,,,-99.99,FreeWX 2.03,2013-03-01 21:43:00,
2013-03-01 15:48:00,61.2,28.6,30.12,East,91,9.0,13.9,29,0.00,,,-99.99,FreeWX 2.03,2013-03-01 21:48:00,
2013-03-01 15:53:00,61.2,28.6,30.12,East,91,9.0,14.8,29,0.00,,,-99.99,FreeWX 2.03,2013-03-01 21:53:00,
2013-03-01 15:58:00,61.2,28.6,30.12,East,91,10.0,16.8,29,0.00,,,-99.99,FreeWX 2.03,2013-03-01 21:58:00,
2013-03-01 16:03:00,61.2,28.6,30.12,East,90,10.0,15.4,29,0.00,,,-99.99,FreeWX 2.03,2013-03-01 22:03:00,
2013-03-01 16:08:00,61.2,28.6,30.12,East,90,9.0,13.4,29,0.00,,,-99.99,FreeWX 2.03,2013-03-01 22:08:00,
2013-03-01 16:13:00,61.2,28.6,30.12,East,92,9.0,15.4,29,0.00,,,-99.99,FreeWX 2.03,2013-03-01 22:13:00,
2013-03-01 16:18:00,61.0,28.6,30.12,East,91,10.0,16.8,29,0.00,,,-99.99,FreeWX 2.03,2013-03-01 22:18:00,
2013-03-01 16:23:00,61.0,28.6,30.12,East,91,10.0,14.8,29,0.00,,,-99.99,FreeWX 2.03,2013-03-01 22:23:00,
2013-03-01 16:28:00,60.8,28.4,30.12,East,93,10.0,15.4,29,0.00,,,-99.99,FreeWX 2.03,2013-03-01 22:28:00,
2013-03-01 16:33:00,60.8,28.4,30.12,East,93,9.0,14.8,29,0.00,,,-99.99,FreeWX 2.03,2013-03-01 22:33:00,
2013-03-01 16:38:00,60.8,28.4,30.12,East,92,8.0,13.4,29,0.00,,,-99.99,FreeWX 2.03,2013-03-01 22:38:00,
2013-03-01 16:43:00,60.8,28.4,30.12,East,94,8.0,13.0,29,0.00,,,-99.99,FreeWX 2.03,2013-03-01 22:43:00,
2013-03-01 16:48:00,60.6,28.2,30.12,East,95,9.0,15.2,29,0.00,,,-99.99,FreeWX 2.03,2013-03-01 22:48:00,
2013-03-01 16:53:00,60.6,28.9,30.12,East,95,9.0,13.0,30,0.00,,,-99.99,FreeWX 2.03,2013-03-01 22:53:00,
2013-03-01 16:58:00,60.4,28.9,30.12,East,95,8.0,13.9,30,0.00,,,-99.99,FreeWX 2.03,2013-03-01 22:58:00,
2013-03-01 17:03:00,60.4,28.9,30.12,East,96,9.0,13.9,30,0.00,,,-99.99,FreeWX 2.03,2013-03-01 23:03:00,
2013-03-01 17:08:00,60.3,28.8,30.12,East,97,9.0,13.4,30,0.00,,,-99.99,FreeWX 2.03,2013-03-01 23:08:00,
2013-03-01 17:13:00,60.1,28.6,30.12,East,94,9.0,12.1,30,0.00,,,-99.99,FreeWX 2.03,2013-03-01 23:13:00,
2013-03-01 17:18:00,60.1,28.6,30.12,East,93,8.0,14.3,30,0.00,,,-99.99,FreeWX 2.03,2013-03-01 23:18:00,
2013-03-01 17:23:00,60.1,30.2,30.12,East,96,8.0,14.8,32,0.00,,,-99.99,FreeWX 2.03,2013-03-01 23:23:00,
2013-03-01 17:28:00,60.1,30.2,30.12,East,97,8.0,13.4,32,0.00,,,-99.99,FreeWX 2.03,2013-03-01 23:28:00,
2013-03-01 17:33:00,60.1,30.2,30.12,East,96,8.0,12.5,32,0.00,,,-99.99,FreeWX 2.03,2013-03-01 23:33:00,
2013-03-01 17:38:00,59.9,30.0,30.12,East,97,8.0,12.5,32,0.00,,,-99.99,FreeWX 2.03,2013-03-01 23:38:00,
2013-03-01 17:43:00,59.9,30.0,30.12,East,96,9.0,13.9,32,0.00,,,-99.99,FreeWX 2.03,2013-03-01 23:43:00,
2013-03-01 17:48:00,59.7,29.8,30.12,East,97,9.0,14.8,32,0.00,,,-99.99,FreeWX 2.03,2013-03-01 23:48:00,
2013-03-01 17:53:00,59.5,29.7,30.12,East,99,9.0,14.3,32,0.00,,,-99.99,FreeWX 2.03,2013-03-01 23:53:00,
2013-03-01 17:58:00,59.5,29.7,30.12,East,99,8.0,14.8,32,0.00,,,-99.99,FreeWX 2.03,2013-03-01 23:58:00,
2013-03-01 18:03:00,59.4,29.5,30.12,East,98,8.0,12.5,32,0.00,,,-99.99,FreeWX 2.03,2013-03-02 00:03:00,
2013-03-01 18:08:00,59.4,31.6,30.12,East,96,8.0,13.9,35,0.00,,,-99.99,FreeWX 2.03,2013-03-02 00:08:00,
2013-03-01 18:13:00,59.2,31.5,30.12,East,97,8.0,13.0,35,0.00,,,-99.99,FreeWX 2.03,2013-03-02 00:13:00,
2013-03-01 18:18:00,58.8,31.3,30.12,East,98,8.0,13.0,35,0.00,,,-99.99,FreeWX 2.03,2013-03-02 00:18:00,
2013-03-01 18:23:00,58.6,31.1,30.12,East,99,8.0,13.4,35,0.00,,,-99.99,FreeWX 2.03,2013-03-02 00:23:00,
2013-03-01 18:28:00,58.5,31.6,30.12,East,100,8.0,16.8,36,0.00,,,-99.99,FreeWX 2.03,2013-03-02 00:28:00,
2013-03-01 18:33:00,58.5,31.6,30.12,East,99,8.0,12.5,36,0.00,,,-99.99,FreeWX 2.03,2013-03-02 00:33:00,
2013-03-01 18:38:00,58.3,31.5,30.12,East,99,8.0,15.2,36,0.00,,,-99.99,FreeWX 2.03,2013-03-02 00:38:00,
2013-03-01 18:43:00,57.9,31.1,30.12,East,101,9.0,15.2,36,0.00,,,-99.99,FreeWX 2.03,2013-03-02 00:43:00,
2013-03-01 18:48:00,57.9,31.1,30.12,East,100,10.0,15.9,36,0.00,,,-99.99,FreeWX 2.03,2013-03-02 00:48:00,
2013-03-01 18:53:00,57.7,30.9,30.12,East,100,9.0,13.0,36,0.00,,,-99.99,FreeWX 2.03,2013-03-02 00:53:00,
2013-03-01 18:58:00,57.7,30.9,30.12,East,101,9.0,15.4,36,0.00,,,-99.99,FreeWX 2.03,2013-03-02 00:58:00,
2013-03-01 19:03:00,57.7,30.9,30.12,ESE,104,9.0,16.8,36,0.00,,,-99.99,FreeWX 2.03,2013-03-02 01:03:00,
2013-03-01 19:08:00,57.6,30.7,30.12,ESE,106,10.0,16.8,36,0.00,,,-99.99,FreeWX 2.03,2013-03-02 01:08:00,
2013-03-01 19:13:00,57.6,31.5,30.12,ESE,108,9.0,14.3,37,0.00,,,-99.99,FreeWX 2.03,2013-03-02 01:13:00,
2013-03-01 19:18:00,57.6,32.2,30.12,ESE,109,8.0,15.2,38,0.00,,,-99.99,FreeWX 2.03,2013-03-02 01:18:00,
2013-03-01 19:23:00,57.6,32.2,30.12,ESE,111,8.0,13.0,38,0.00,,,-99.99,FreeWX 2.03,2013-03-02 01:23:00,
2013-03-01 19:28:00,57.6,32.2,30.12,ESE,111,8.0,14.3,38,0.00,,,-99.99,FreeWX 2.03,2013-03-02 01:28:00,
2013-03-01 19:33:00,57.4,32.0,30.12,ESE,111,8.0,11.6,38,0.00,,,-99.99,FreeWX 2.03,2013-03-02 01:33:00,
2013-03-01 19:38:00,57.4,32.0,30.12,ESE,113,8.0,13.0,38,0.00,,,-99.99,FreeWX 2.03,2013-03-02 01:38:00,
2013-03-01 19:43:00,57.4,32.0,30.12,ESE,116,8.0,14.8,38,0.00,,,-99.99,FreeWX 2.03,2013-03-02 01:43:00,
2013-03-01 19:48:00,57.6,32.2,30.12,ESE,118,8.0,13.0,38,0.00,,,-99.99,FreeWX 2.03,2013-03-02 01:48:00,
2013-03-01 19:53:00,57.7,32.4,30.12,ESE,118,8.0,13.0,38,0.00,,,-99.99,FreeWX 2.03,2013-03-02 01:53:00,
2013-03-01 19:58:00,57.7,32.9,30.12,ESE,118,8.0,14.8,39,0.00,,,-99.99,FreeWX 2.03,2013-03-02 01:58:00,
2013-03-01 20:03:00,57.6,33.4,30.12,ESE,121,8.0,13.0,40,0.00,,,-99.99,FreeWX 2.03,2013-03-02 02:03:00,
2013-03-01 20:08:00,57.7,33.6,30.12,SE,124,8.0,15.4,40,0.00,,,-99.99,FreeWX 2.03,2013-03-02 02:08:00,
2013-03-01 20:13:00,57.7,33.6,30.15,SE,126,8.0,12.5,40,0.00,,,-99.99,FreeWX 2.03,2013-03-02 02:13:00,
2013-03-01 20:18:00,57.6,34.0,30.15,SE,127,8.0,11.6,41,0.00,,,-99.99,FreeWX 2.03,2013-03-02 02:18:00,
2013-03-01 20:23:00,57.6,34.0,30.15,SE,129,8.0,15.4,41,0.00,,,-99.99,FreeWX 2.03,2013-03-02 02:23:00,
2013-03-01 20:28:00,57.6,34.7,30.15,SE,129,8.0,13.0,42,0.00,,,-99.99,FreeWX 2.03,2013-03-02 02:28:00,
2013-03-01 20:33:00,57.4,35.1,30.15,SE,131,8.0,13.9,43,0.00,,,-99.99,FreeWX 2.03,2013-03-02 02:33:00,
2013-03-01 20:38:00,57.4,35.6,30.15,SE,132,8.0,13.0,44,0.00,,,-99.99,FreeWX 2.03,2013-03-02 02:38:00,
2013-03-01 20:43:00,57.4,36.1,30.15,SE,131,7.0,13.4,45,0.00,,,-99.99,FreeWX 2.03,2013-03-02 02:43:00,
2013-03-01 20:48:00,57.6,36.3,30.15,SE,134,7.0,13.0,45,0.00,,,-99.99,FreeWX 2.03,2013-03-02 02:48:00,
2013-03-01 20:53:00,57.6,36.9,30.15,SE,135,7.0,13.0,46,0.00,,,-99.99,FreeWX 2.03,2013-03-02 02:53:00,
2013-03-01 20:58:00,57.4,36.9,30.15,SE,135,6.0,8.3,46,0.00,,,-99.99,FreeWX 2.03,2013-03-02 02:58:00,
2013-03-01 21:03:00,57.4,36.9,30.15,SE,137,7.0,14.8,46,0.00,,,-99.99,FreeWX 2.03,2013-03-02 03:03:00,
2013-03-01 21:08:00,57.4,36.9,30.15,SE,139,8.0,11.2,46,0.00,,,-99.99,FreeWX 2.03,2013-03-02 03:08:00,
2013-03-01 21:13:00,57.4,36.9,30.15,SE,140,7.0,13.0,46,0.00,,,-99.99,FreeWX 2.03,2013-03-02 03:13:00,
2013-03-01 21:18:00,57.4,37.4,30.15,SE,140,6.0,9.2,47,0.00,,,-99.99,FreeWX 2.03,2013-03-02 03:18:00,
2013-03-01 21:23:00,57.4,37.4,30.15,SE,141,6.0,10.1,47,0.00,,,-99.99,FreeWX 2.03,2013-03-02 03:23:00,
2013-03-01 21:28:00,57.2,37.2,30.15,SE,143,6.0,10.1,47,0.00,,,-99.99,FreeWX 2.03,2013-03-02 03:28:00,
2013-03-01 21:33:00,57.2,37.2,30.15,SE,143,5.0,7.8,47,0.00,,,-99.99,FreeWX 2.03,2013-03-02 03:33:00,
2013-03-01 21:38:00,57.0,37.6,30.15,SE,146,5.0,8.3,48,0.00,,,-99.99,FreeWX 2.03,2013-03-02 03:38:00,
2013-03-01 21:43:00,57.0,38.1,30.18,SSE,147,5.0,9.2,49,0.00,,,-99.99,FreeWX 2.03,2013-03-02 03:43:00,
2013-03-01 21:48:00,56.8,37.4,30.18,SE,145,5.0,7.8,48,0.00,,,-99.99,FreeWX 2.03,2013-03-02 03:48:00,
2013-03-01 21:54:00,56.7,37.2,30.18,SE,146,4.0,6.7,48,0.00,,,-99.99,FreeWX 2.03,2013-03-02 03:54:00,
2013-03-01 21:59:00,56.7,37.2,30.18,SSE,149,4.0,5.8,48,0.00,,,-99.99,FreeWX 2.03,2013-03-02 03:59:00,
2013-03-01 22:04:00,56.5,37.6,30.18,SSE,151,4.0,5.8,49,0.00,,,-99.99,FreeWX 2.03,2013-03-02 04:04:00,
2013-03-01 22:09:00,56.3,37.4,30.18,SSE,153,4.0,6.9,49,0.00,,,-99.99,FreeWX 2.03,2013-03-02 04:09:00,
2013-03-01 22:14:00,56.1,37.8,30.18,SSE,156,6.0,8.3,50,0.00,,,-99.99,FreeWX 2.03,2013-03-02 04:14:00,
2013-03-01 22:19:00,56.1,38.3,30.18,SSE,159,6.0,9.6,51,0.00,,,-99.99,FreeWX 2.03,2013-03-02 04:19:00,
2013-03-01 22:24:00,55.9,38.5,30.18,SSE,162,6.0,10.5,52,0.00,,,-99.99,FreeWX 2.03,2013-03-02 04:24:00,
2013-03-01 22:29:00,55.9,39.0,30.18,SSE,166,6.0,7.4,53,0.00,,,-99.99,FreeWX 2.03,2013-03-02 04:29:00,
2013-03-01 22:34:00,55.9,39.0,30.18,South,171,4.0,6.7,53,0.00,,,-99.99,FreeWX 2.03,2013-03-02 04:34:00,
2013-03-01 22:39:00,55.8,39.4,30.18,South,179,3.0,4.5,54,0.00,,,-99.99,FreeWX 2.03,2013-03-02 04:39:00,
2013-03-01 22:44:00,55.6,39.2,30.18,SSW,193,3.0,5.4,54,0.00,,,-99.99,FreeWX 2.03,2013-03-02 04:44:00,
2013-03-01 22:49:00,55.4,39.6,30.18,SSW,202,4.0,6.3,55,0.00,,,-99.99,FreeWX 2.03,2013-03-02 04:49:00,
2013-03-01 22:54:00,55.0,39.2,30.18,SSW,203,5.0,6.7,55,0.00,,,-99.99,FreeWX 2.03,2013-03-02 04:54:00,
2013-03-01 22:59:00,54.7,39.4,30.21,SSW,203,4.0,6.3,56,0.00,,,-99.99,FreeWX 2.03,2013-03-02 04:59:00,
2013-03-01 23:04:00,54.5,39.2,30.21,SSW,206,5.0,6.7,56,0.00,,,-99.99,FreeWX 2.03,2013-03-02 05:04:00,
2013-03-01 23:09:00,54.1,39.2,30.21,SSW,212,6.0,8.3,57,0.00,,,-99.99,FreeWX 2.03,2013-03-02 05:09:00,
2013-03-01 23:14:00,54.0,39.6,30.21,SSW,212,6.0,8.7,58,0.00,,,-99.99,FreeWX 2.03,2013-03-02 05:14:00,
2013-03-01 23:19:00,54.0,39.9,30.21,SSW,213,6.0,6.9,59,0.00,,,-99.99,FreeWX 2.03,2013-03-02 05:19:00,
2013-03-01 23:24:00,54.0,40.5,30.21,SW,219,6.0,7.4,60,0.00,,,-99.99,FreeWX 2.03,2013-03-02 05:24:00,
2013-03-01 23:29:00,54.0,41.2,30.21,SW,236,6.0,6.7,62,0.00,,,-99.99,FreeWX 2.03,2013-03-02 05:29:00,
2013-03-01 23:34:00,54.0,42.1,30.21,WSW,246,6.0,6.9,64,0.00,,,-99.99,FreeWX 2.03,2013-03-02 05:34:00,
2013-03-01 23:39:00,54.3,43.5,30.21,SW,233,7.0,10.1,67,0.00,,,-99.99,FreeWX 2.03,2013-03-02 05:39:00,
2013-03-01 23:44:00,54.5,44.6,30.21,SW,226,8.0,10.1,69,0.00,,,-99.99,FreeWX 2.03,2013-03-02 05:44:00,
2013-03-01 23:49:00,54.7,45.5,30.21,SW,234,8.0,10.1,71,0.00,,,-99.99,FreeWX 2.03,2013-03-02 05:49:00,
2013-03-01 23:54:00,54.9,46.0,30.21,WSW,241,8.0,9.6,72,0.00,,,-99.99,FreeWX 2.03,2013-03-02 05:54:00,
2013-03-01 23:59:00,55.0,46.6,30.21,WSW,239,8.0,9.6,73,0.00,,,-99.99,FreeWX 2.03,2013-03-02 05:59:00,